createdAt,value
2019-02-17T00:00:29.477Z,6.19
2019-02-17T00:01:29.489Z,6.17
2019-02-17T00:02:29.553Z,6.08
2019-02-17T00:03:29.521Z,6.07
2019-02-17T00:04:29.539Z,6.09
2019-02-17T00:05:29.554Z,6.07
2019-02-17T00:06:29.569Z,6.05
2019-02-17T00:07:29.582Z,6.11
2019-02-17T00:08:29.599Z,6.08
2019-02-17T00:09:29.623Z,6.08
2019-02-17T00:10:29.636Z,6.09
2019-02-17T00:11:29.646Z,6.02
2019-02-17T00:12:29.660Z,6.04
2019-02-17T00:13:29.674Z,6.07
2019-02-17T00:14:30.093Z,6.09
2019-02-17T00:15:29.710Z,5.98
2019-02-17T00:16:29.721Z,5.91
2019-02-17T00:17:29.737Z,5.90
2019-02-17T00:18:29.754Z,5.99
2019-02-17T00:19:29.769Z,5.98
2019-02-17T00:20:29.783Z,5.94
2019-02-17T00:21:29.801Z,5.86
2019-02-17T00:22:29.818Z,5.90
2019-02-17T00:23:29.836Z,5.87
2019-02-17T00:24:29.843Z,5.86
2019-02-17T00:25:29.861Z,5.73
2019-02-17T00:26:29.882Z,5.82
2019-02-17T00:27:29.897Z,5.73
2019-02-17T00:28:29.905Z,5.75
2019-02-17T00:29:29.923Z,5.62
2019-02-17T00:30:29.941Z,5.76
2019-02-17T00:31:29.950Z,5.87
2019-02-17T00:32:29.968Z,5.90
2019-02-17T00:33:29.981Z,5.93
2019-02-17T00:34:29.998Z,5.99
2019-02-17T00:35:30.014Z,5.90
2019-02-17T00:36:30.027Z,5.98
2019-02-17T00:37:30.042Z,5.91
2019-02-17T00:38:30.057Z,5.91
2019-02-17T00:39:30.075Z,5.94
2019-02-17T00:40:30.088Z,5.86
2019-02-17T00:41:30.105Z,5.91
2019-02-17T00:42:30.118Z,5.93
2019-02-17T00:43:30.142Z,5.94
2019-02-17T00:44:30.158Z,5.84
2019-02-17T00:45:30.165Z,5.82
2019-02-17T00:46:30.183Z,5.82
2019-02-17T00:47:30.200Z,5.80
2019-02-17T00:48:30.209Z,5.84
2019-02-17T00:49:30.232Z,5.94
2019-02-17T00:50:30.242Z,5.87
2019-02-17T00:51:30.255Z,5.87
2019-02-17T00:52:30.270Z,5.89
2019-02-17T00:53:30.293Z,5.99
2019-02-17T00:54:30.305Z,5.93
2019-02-17T00:55:30.318Z,5.99
2019-02-17T00:56:30.339Z,5.98
2019-02-17T00:57:30.349Z,6.02
2019-02-17T00:58:30.370Z,5.82
2019-02-17T00:59:30.383Z,5.71
2019-02-17T01:00:30.393Z,5.73
2019-02-17T01:01:30.418Z,5.79
2019-02-17T01:02:30.427Z,5.82
2019-02-17T01:03:30.450Z,5.73
2019-02-17T01:04:30.462Z,5.57
2019-02-17T01:05:30.484Z,5.53
2019-02-17T01:06:30.486Z,5.54
2019-02-17T01:07:30.503Z,5.36
2019-02-17T01:08:30.524Z,5.43
2019-02-17T01:09:30.537Z,5.39
2019-02-17T01:10:30.546Z,5.39
2019-02-17T01:11:30.561Z,5.39
2019-02-17T01:12:30.577Z,5.41
2019-02-17T01:13:30.596Z,5.43
2019-02-17T01:14:30.609Z,5.35
2019-02-17T01:15:30.622Z,5.43
2019-02-17T01:16:30.638Z,5.38
2019-02-17T01:17:30.654Z,5.41
2019-02-17T01:18:30.667Z,5.44
2019-02-17T01:19:30.685Z,5.43
2019-02-17T01:20:30.698Z,5.47
2019-02-17T01:21:30.712Z,5.44
2019-02-17T01:22:30.730Z,5.39
2019-02-17T01:23:30.749Z,5.48
2019-02-17T01:24:30.760Z,5.43
2019-02-17T01:25:30.772Z,5.44
2019-02-17T01:26:30.792Z,5.54
2019-02-17T01:27:30.805Z,5.48
2019-02-17T01:28:30.819Z,5.44
2019-02-17T01:29:30.837Z,5.56
2019-02-17T01:30:30.850Z,5.51
2019-02-17T01:31:30.872Z,5.46
2019-02-17T01:32:30.878Z,5.47
2019-02-17T01:33:30.894Z,5.44
2019-02-17T01:34:30.909Z,5.23
2019-02-17T01:35:30.923Z,5.35
2019-02-17T01:36:30.944Z,5.38
2019-02-17T01:37:30.954Z,5.48
2019-02-17T01:38:30.976Z,5.46
2019-02-17T01:39:30.984Z,5.46
2019-02-17T01:40:31.000Z,5.46
2019-02-17T01:41:31.013Z,5.51
2019-02-17T01:42:31.029Z,5.36
2019-02-17T01:43:31.050Z,5.39
2019-02-17T01:44:31.166Z,5.39
2019-02-17T01:45:31.073Z,5.38
2019-02-17T01:46:31.087Z,5.39
2019-02-17T01:47:31.105Z,5.35
2019-02-17T01:48:31.119Z,5.43
2019-02-17T01:49:31.134Z,5.35
2019-02-17T01:50:31.155Z,5.32
2019-02-17T01:51:31.164Z,5.36
2019-02-17T01:52:31.176Z,5.43
2019-02-17T01:53:31.190Z,5.44
2019-02-17T01:54:31.207Z,5.38
2019-02-17T01:55:31.220Z,5.44
2019-02-17T01:56:31.236Z,5.39
2019-02-17T01:57:31.252Z,5.41
2019-02-17T01:58:31.267Z,5.44
2019-02-17T01:59:31.286Z,5.41
2019-02-17T02:00:31.295Z,5.32
2019-02-17T02:01:31.311Z,5.28
2019-02-17T02:02:31.325Z,5.33
2019-02-17T02:03:31.342Z,5.18
2019-02-17T02:04:31.356Z,5.15
2019-02-17T02:05:31.368Z,5.11
2019-02-17T02:06:31.385Z,5.12
2019-02-17T02:07:31.401Z,5.02
2019-02-17T02:08:31.412Z,5.05
2019-02-17T02:09:31.429Z,5.05
2019-02-17T02:10:31.444Z,5.00
2019-02-17T02:11:31.456Z,5.04
2019-02-17T02:12:31.471Z,5.07
2019-02-17T02:13:31.485Z,5.05
2019-02-17T02:14:31.507Z,5.11
2019-02-17T02:15:31.518Z,5.11
2019-02-17T02:16:31.532Z,5.04
2019-02-17T02:17:31.546Z,5.02
2019-02-17T02:18:31.560Z,5.04
2019-02-17T02:19:31.582Z,5.05
2019-02-17T02:20:31.590Z,5.02
2019-02-17T02:21:31.605Z,5.00
2019-02-17T02:22:31.619Z,5.10
2019-02-17T02:23:31.638Z,5.05
2019-02-17T02:24:31.647Z,5.04
2019-02-17T02:25:31.662Z,5.04
2019-02-17T02:26:31.676Z,4.93
2019-02-17T02:27:31.691Z,4.94
2019-02-17T02:28:31.707Z,4.84
2019-02-17T02:29:40.701Z,4.86
2019-02-17T02:30:31.739Z,4.87
2019-02-17T02:31:31.749Z,4.78
2019-02-17T02:32:31.764Z,4.71
2019-02-17T02:33:31.780Z,4.82
2019-02-17T02:34:31.802Z,4.74
2019-02-17T02:35:31.809Z,4.75
2019-02-17T02:36:31.827Z,4.87
2019-02-17T02:37:31.840Z,4.92
2019-02-17T02:38:31.861Z,4.84
2019-02-17T02:39:31.868Z,4.86
2019-02-17T02:40:31.884Z,4.87
2019-02-17T02:41:34.823Z,4.93
2019-02-17T02:42:31.919Z,4.92
2019-02-17T02:43:31.927Z,4.89
2019-02-17T02:44:31.949Z,4.90
2019-02-17T02:45:31.958Z,4.89
2019-02-17T02:46:31.969Z,4.89
2019-02-17T02:47:31.985Z,4.97
2019-02-17T02:48:32.001Z,4.97
2019-02-17T02:49:32.022Z,5.00
2019-02-17T02:50:32.029Z,5.12
2019-02-17T02:51:32.042Z,5.11
2019-02-17T02:52:32.059Z,5.15
2019-02-17T02:53:32.073Z,5.36
2019-02-17T02:54:32.085Z,5.35
2019-02-17T02:55:32.102Z,5.35
2019-02-17T02:56:32.119Z,5.43
2019-02-17T02:57:32.133Z,5.41
2019-02-17T02:58:32.144Z,5.39
2019-02-17T02:59:32.162Z,5.29
2019-02-17T03:00:32.180Z,5.26
2019-02-17T03:01:32.188Z,5.38
2019-02-17T03:02:32.203Z,5.35
2019-02-17T03:03:32.220Z,5.38
2019-02-17T03:04:32.238Z,5.36
2019-02-17T03:05:32.246Z,5.29
2019-02-17T03:06:32.263Z,5.30
2019-02-17T03:07:32.278Z,5.38
2019-02-17T03:08:32.294Z,5.38
2019-02-17T03:09:32.314Z,5.35
2019-02-17T03:10:32.326Z,5.35
2019-02-17T03:11:32.337Z,5.29
2019-02-17T03:12:32.351Z,5.32
2019-02-17T03:13:32.368Z,5.35
2019-02-17T03:14:32.381Z,5.25
2019-02-17T03:15:32.393Z,5.18
2019-02-17T03:16:32.408Z,5.18
2019-02-17T03:17:32.424Z,5.10
2019-02-17T03:18:32.446Z,4.94
2019-02-17T03:19:32.454Z,5.05
2019-02-17T03:20:32.468Z,5.04
2019-02-17T03:21:32.488Z,4.99
2019-02-17T03:22:32.499Z,4.93
2019-02-17T03:23:32.510Z,4.99
2019-02-17T03:24:32.533Z,4.90
2019-02-17T03:25:32.541Z,4.87
2019-02-17T03:26:32.556Z,4.92
2019-02-17T03:27:32.570Z,4.93
2019-02-17T03:28:32.588Z,4.96
2019-02-17T03:29:33.300Z,4.99
2019-02-17T03:30:32.615Z,4.90
2019-02-17T03:31:32.635Z,4.92
2019-02-17T03:32:32.652Z,4.84
2019-02-17T03:33:32.663Z,4.82
2019-02-17T03:34:32.671Z,4.77
2019-02-17T03:35:32.688Z,4.73
2019-02-17T03:36:32.699Z,4.77
2019-02-17T03:37:32.720Z,4.84
2019-02-17T03:38:32.731Z,4.78
2019-02-17T03:39:32.745Z,4.87
2019-02-17T03:40:32.759Z,4.80
2019-02-17T03:41:32.774Z,4.78
2019-02-17T03:42:32.787Z,4.82
2019-02-17T03:43:32.801Z,4.84
2019-02-17T03:44:32.837Z,4.87
2019-02-17T03:45:32.830Z,4.93
2019-02-17T03:46:32.848Z,4.80
2019-02-17T03:47:32.861Z,4.84
2019-02-17T03:48:32.903Z,4.77
2019-02-17T03:49:32.893Z,4.74
2019-02-17T03:50:32.902Z,4.87
2019-02-17T03:51:32.919Z,4.80
2019-02-17T03:52:32.934Z,4.66
2019-02-17T03:53:32.945Z,4.66
2019-02-17T03:54:32.961Z,4.66
2019-02-17T03:55:32.977Z,4.62
2019-02-17T03:56:32.990Z,4.49
2019-02-17T03:57:33.005Z,4.45
2019-02-17T03:58:33.021Z,4.37
2019-02-17T03:59:33.032Z,4.40
2019-02-17T04:00:33.057Z,4.38
2019-02-17T04:01:33.063Z,4.38
2019-02-17T04:02:33.082Z,4.37
2019-02-17T04:03:33.092Z,4.34
2019-02-17T04:04:33.107Z,4.41
2019-02-17T04:05:33.122Z,4.40
2019-02-17T04:06:33.136Z,4.52
2019-02-17T04:07:33.148Z,4.49
2019-02-17T04:08:33.165Z,4.48
2019-02-17T04:09:33.178Z,4.45
2019-02-17T04:10:33.192Z,4.45
2019-02-17T04:11:33.205Z,4.48
2019-02-17T04:12:33.220Z,4.55
2019-02-17T04:13:33.236Z,4.52
2019-02-17T04:14:33.250Z,4.42
2019-02-17T04:15:33.267Z,4.44
2019-02-17T04:16:33.279Z,4.42
2019-02-17T04:17:33.326Z,4.44
2019-02-17T04:18:33.306Z,4.40
2019-02-17T04:19:33.323Z,4.37
2019-02-17T04:20:33.346Z,4.40
2019-02-17T04:21:33.610Z,4.31
2019-02-17T04:22:33.366Z,4.17
2019-02-17T04:23:33.382Z,4.23
2019-02-17T04:24:33.399Z,4.14
2019-02-17T04:25:33.416Z,4.08
2019-02-17T04:26:33.421Z,4.13
2019-02-17T04:27:33.436Z,4.13
2019-02-17T04:28:33.454Z,4.16
2019-02-17T04:29:33.466Z,4.10
2019-02-17T04:30:33.482Z,4.05
2019-02-17T04:31:33.493Z,4.06
2019-02-17T04:32:33.510Z,3.99
2019-02-17T04:33:33.527Z,4.05
2019-02-17T04:34:33.536Z,4.05
2019-02-17T04:35:33.559Z,4.01
2019-02-17T04:36:33.575Z,4.06
2019-02-17T04:37:33.582Z,4.14
2019-02-17T04:38:33.597Z,4.06
2019-02-17T04:39:33.610Z,4.06
2019-02-17T04:40:33.824Z,4.02
2019-02-17T04:41:33.638Z,3.99
2019-02-17T04:42:33.653Z,4.08
2019-02-17T04:43:33.665Z,4.08
2019-02-17T04:44:33.682Z,4.02
2019-02-17T04:45:33.696Z,3.96
2019-02-17T04:46:33.709Z,4.05
2019-02-17T04:47:33.722Z,4.06
2019-02-17T04:48:33.737Z,4.16
2019-02-17T04:49:33.751Z,3.99
2019-02-17T04:50:33.765Z,3.99
2019-02-17T04:51:33.780Z,3.99
2019-02-17T04:52:33.806Z,4.10
2019-02-17T04:53:33.810Z,4.02
2019-02-17T04:54:33.823Z,3.96
2019-02-17T04:55:33.838Z,3.95
2019-02-17T04:56:33.858Z,4.01
2019-02-17T04:57:33.866Z,3.94
2019-02-17T04:58:33.893Z,3.83
2019-02-17T04:59:33.898Z,3.80
2019-02-17T05:00:40.334Z,3.86
2019-02-17T05:01:33.925Z,3.65
2019-02-17T05:02:33.939Z,3.76
2019-02-17T05:03:33.956Z,3.68
2019-02-17T05:04:33.969Z,3.69
2019-02-17T05:05:34.087Z,3.56
2019-02-17T05:06:34.005Z,3.56
2019-02-17T05:07:34.010Z,3.56
2019-02-17T05:08:34.026Z,3.58
2019-02-17T05:09:34.046Z,3.63
2019-02-17T05:10:34.054Z,3.58
2019-02-17T05:11:34.073Z,3.59
2019-02-17T05:12:34.085Z,3.56
2019-02-17T05:13:34.102Z,3.59
2019-02-17T05:14:34.110Z,3.53
2019-02-17T05:15:34.136Z,3.69
2019-02-17T05:16:34.137Z,3.56
2019-02-17T05:17:34.154Z,3.68
2019-02-17T05:18:34.164Z,3.53
2019-02-17T05:19:34.192Z,3.56
2019-02-17T05:20:34.203Z,3.58
2019-02-17T05:21:34.209Z,3.58
2019-02-17T05:22:34.223Z,3.62
2019-02-17T05:23:34.235Z,3.58
2019-02-17T05:24:34.250Z,3.53
2019-02-17T05:25:34.264Z,3.56
2019-02-17T05:26:34.278Z,3.66
2019-02-17T05:27:34.297Z,3.68
2019-02-17T05:28:34.315Z,3.69
2019-02-17T05:29:34.325Z,3.66
2019-02-17T05:30:34.335Z,3.58
2019-02-17T05:31:34.358Z,3.65
2019-02-17T05:32:34.364Z,3.73
2019-02-17T05:33:34.380Z,3.68
2019-02-17T05:34:34.390Z,3.74
2019-02-17T05:35:34.405Z,3.77
2019-02-17T05:36:34.425Z,3.70
2019-02-17T05:37:34.440Z,3.69
2019-02-17T05:38:34.447Z,3.73
2019-02-17T05:39:34.467Z,3.83
2019-02-17T05:40:36.422Z,3.87
2019-02-17T05:41:34.489Z,3.83
2019-02-17T05:42:34.503Z,3.77
2019-02-17T05:43:34.527Z,3.83
2019-02-17T05:44:34.537Z,3.81
2019-02-17T05:45:34.545Z,3.77
2019-02-17T05:46:34.569Z,3.69
2019-02-17T05:47:34.574Z,3.66
2019-02-17T05:48:34.593Z,3.78
2019-02-17T05:49:34.608Z,3.76
2019-02-17T05:50:34.615Z,3.73
2019-02-17T05:51:34.630Z,3.73
2019-02-17T05:52:34.644Z,3.65
2019-02-17T05:53:34.659Z,3.74
2019-02-17T05:54:34.675Z,3.62
2019-02-17T05:55:34.701Z,3.68
2019-02-17T05:56:34.705Z,3.68
2019-02-17T05:57:34.716Z,3.63
2019-02-17T05:58:34.730Z,3.51
2019-02-17T05:59:34.750Z,3.45
2019-02-17T06:00:34.759Z,3.40
2019-02-17T06:01:34.775Z,3.40
2019-02-17T06:02:34.791Z,3.32
2019-02-17T06:03:34.799Z,3.31
2019-02-17T06:04:34.815Z,3.31
2019-02-17T06:05:34.829Z,3.41
2019-02-17T06:06:34.842Z,3.34
2019-02-17T06:07:34.862Z,3.40
2019-02-17T06:08:34.869Z,3.34
2019-02-17T06:09:34.893Z,3.44
2019-02-17T06:10:34.899Z,3.51
2019-02-17T06:11:34.914Z,3.51
2019-02-17T06:12:34.927Z,3.44
2019-02-17T06:13:34.937Z,3.45
2019-02-17T06:14:34.955Z,3.48
2019-02-17T06:15:35.221Z,3.47
2019-02-17T06:16:34.984Z,3.55
2019-02-17T06:17:34.999Z,3.51
2019-02-17T06:18:35.015Z,3.58
2019-02-17T06:19:35.033Z,3.53
2019-02-17T06:20:35.040Z,3.60
2019-02-17T06:21:35.052Z,3.53
2019-02-17T06:22:35.074Z,3.50
2019-02-17T06:23:35.083Z,3.47
2019-02-17T06:24:35.095Z,3.55
2019-02-17T06:25:35.122Z,3.47
2019-02-17T06:26:35.125Z,3.58
2019-02-17T06:27:35.137Z,3.58
2019-02-17T06:28:35.153Z,3.56
2019-02-17T06:29:35.172Z,3.55
2019-02-17T06:30:35.179Z,3.68
2019-02-17T06:31:35.199Z,3.56
2019-02-17T06:32:35.208Z,3.53
2019-02-17T06:33:35.220Z,3.60
2019-02-17T06:34:35.241Z,3.65
2019-02-17T06:35:35.252Z,3.73
2019-02-17T06:36:35.263Z,3.65
2019-02-17T06:37:35.277Z,3.68
2019-02-17T06:38:35.297Z,3.62
2019-02-17T06:39:35.306Z,3.50
2019-02-17T06:40:35.317Z,3.51
2019-02-17T06:41:35.337Z,3.47
2019-02-17T06:42:35.351Z,3.45
2019-02-17T06:43:35.460Z,3.36
2019-02-17T06:44:35.382Z,3.40
2019-02-17T06:45:35.397Z,3.32
2019-02-17T06:46:35.413Z,3.36
2019-02-17T06:47:35.421Z,3.32
2019-02-17T06:48:35.432Z,3.31
2019-02-17T06:49:35.442Z,3.31
2019-02-17T06:50:35.465Z,3.40
2019-02-17T06:51:35.471Z,3.32
2019-02-17T06:52:35.494Z,3.34
2019-02-17T06:53:35.501Z,3.32
2019-02-17T06:54:35.511Z,3.31
2019-02-17T06:55:35.528Z,3.40
2019-02-17T06:56:35.557Z,3.32
2019-02-17T06:57:35.562Z,3.36
2019-02-17T06:58:35.576Z,3.32
2019-02-17T06:59:35.581Z,3.34
2019-02-17T07:00:35.595Z,3.31
2019-02-17T07:01:35.613Z,3.42
2019-02-17T07:02:35.631Z,3.41
2019-02-17T07:03:35.640Z,3.41
2019-02-17T07:04:35.674Z,3.37
2019-02-17T07:05:35.668Z,3.53
2019-02-17T07:06:35.687Z,3.50
2019-02-17T07:07:35.693Z,3.50
2019-02-17T07:08:35.735Z,3.55
2019-02-17T07:09:35.728Z,3.53
2019-02-17T07:10:35.734Z,3.44
2019-02-17T07:11:35.759Z,3.51
2019-02-17T07:12:35.763Z,3.53
2019-02-17T07:13:35.785Z,3.53
2019-02-17T07:14:35.798Z,3.62
2019-02-17T07:15:35.810Z,3.51
2019-02-17T07:16:35.820Z,3.53
2019-02-17T07:17:35.833Z,3.66
2019-02-17T07:18:35.846Z,3.68
2019-02-17T07:19:35.860Z,3.56
2019-02-17T07:20:35.877Z,3.50
2019-02-17T07:21:35.887Z,3.51
2019-02-17T07:22:35.910Z,3.56
2019-02-17T07:23:35.917Z,3.53
2019-02-17T07:24:35.930Z,3.68
2019-02-17T07:25:35.946Z,3.73
2019-02-17T07:26:35.958Z,3.65
2019-02-17T07:27:35.974Z,3.73
2019-02-17T07:28:35.988Z,3.69
2019-02-17T07:29:36.007Z,3.65
2019-02-17T07:30:36.013Z,3.68
2019-02-17T07:31:36.027Z,3.74
2019-02-17T07:32:36.043Z,3.86
2019-02-17T07:33:36.106Z,3.76
2019-02-17T07:34:36.071Z,3.76
2019-02-17T07:35:36.084Z,3.68
2019-02-17T07:36:36.101Z,3.68
2019-02-17T07:37:36.111Z,3.84
2019-02-17T07:38:36.124Z,3.78
2019-02-17T07:39:36.139Z,3.83
2019-02-17T07:40:36.162Z,3.77
2019-02-17T07:41:36.167Z,3.69
2019-02-17T07:42:36.245Z,3.78
2019-02-17T07:43:36.198Z,3.78
2019-02-17T07:44:36.211Z,3.78
2019-02-17T07:45:36.229Z,3.81
2019-02-17T07:46:36.239Z,3.84
2019-02-17T07:47:36.251Z,3.81
2019-02-17T07:48:36.272Z,3.83
2019-02-17T07:49:36.278Z,3.96
2019-02-17T07:50:36.302Z,3.98
2019-02-17T07:51:36.313Z,3.99
2019-02-17T07:52:36.325Z,4.01
2019-02-17T07:53:36.334Z,3.99
2019-02-17T07:54:36.357Z,3.95
2019-02-17T07:55:36.363Z,3.95
2019-02-17T07:56:36.380Z,3.98
2019-02-17T07:57:36.391Z,4.05
2019-02-17T07:58:36.407Z,4.16
2019-02-17T07:59:36.421Z,4.02
2019-02-17T08:00:36.436Z,3.98
2019-02-17T08:01:44.984Z,3.95
2019-02-17T08:02:36.461Z,3.98
2019-02-17T08:03:36.484Z,3.96
2019-02-17T08:04:36.490Z,4.01
2019-02-17T08:05:36.506Z,4.08
2019-02-17T08:06:36.524Z,4.06
2019-02-17T08:07:36.533Z,4.13
2019-02-17T08:08:36.550Z,4.19
2019-02-17T08:09:36.563Z,4.22
2019-02-17T08:10:36.576Z,4.06
2019-02-17T08:11:36.591Z,4.04
2019-02-17T08:12:36.603Z,4.02
2019-02-17T08:13:36.618Z,4.12
2019-02-17T08:14:36.636Z,4.06
2019-02-17T08:15:36.648Z,3.99
2019-02-17T08:16:36.660Z,4.06
2019-02-17T08:17:36.675Z,3.98
2019-02-17T08:18:36.690Z,3.98
2019-02-17T08:19:36.706Z,3.99
2019-02-17T08:20:36.773Z,3.98
2019-02-17T08:21:36.732Z,4.04
2019-02-17T08:22:36.745Z,4.08
2019-02-17T08:23:36.759Z,4.14
2019-02-17T08:24:36.782Z,4.22
2019-02-17T08:25:36.790Z,4.22
2019-02-17T08:26:36.807Z,4.23
2019-02-17T08:27:36.826Z,4.32
2019-02-17T08:28:36.833Z,4.26
2019-02-17T08:29:36.844Z,4.37
2019-02-17T08:30:36.861Z,4.35
2019-02-17T08:31:36.873Z,4.49
2019-02-17T08:32:36.896Z,4.41
2019-02-17T08:33:36.901Z,4.50
2019-02-17T08:34:36.918Z,4.58
2019-02-17T08:35:36.937Z,4.49
2019-02-17T08:36:36.947Z,4.52
2019-02-17T08:37:36.961Z,4.62
2019-02-17T08:38:36.974Z,4.63
2019-02-17T08:39:36.988Z,4.66
2019-02-17T08:40:37.005Z,4.62
2019-02-17T08:41:37.019Z,4.68
2019-02-17T08:42:37.031Z,4.70
2019-02-17T08:43:37.049Z,4.84
2019-02-17T08:44:37.067Z,4.86
2019-02-17T08:45:37.080Z,4.97
2019-02-17T08:46:37.090Z,5.07
2019-02-17T08:47:37.103Z,5.05
2019-02-17T08:48:37.121Z,5.04
2019-02-17T08:49:37.137Z,5.12
2019-02-17T08:50:37.149Z,5.15
2019-02-17T08:51:37.162Z,5.18
2019-02-17T08:52:37.178Z,5.18
2019-02-17T08:53:37.190Z,5.29
2019-02-17T08:54:37.209Z,5.36
2019-02-17T08:55:37.224Z,5.33
2019-02-17T08:56:37.238Z,5.44
2019-02-17T08:57:38.085Z,5.43
2019-02-17T08:58:37.270Z,5.38
2019-02-17T08:59:37.288Z,5.46
2019-02-17T09:00:37.297Z,5.46
2019-02-17T09:01:37.311Z,5.56
2019-02-17T09:02:37.324Z,5.61
2019-02-17T09:03:37.343Z,5.73
2019-02-17T09:04:37.354Z,5.65
2019-02-17T09:05:43.784Z,5.66
2019-02-17T09:06:37.384Z,5.82
2019-02-17T09:07:37.399Z,5.82
2019-02-17T09:08:37.417Z,5.91
2019-02-17T09:09:37.453Z,5.93
2019-02-17T09:10:37.601Z,6.04
2019-02-17T09:11:37.461Z,6.08
2019-02-17T09:12:37.482Z,6.17
2019-02-17T09:13:37.491Z,6.26
2019-02-17T09:14:37.511Z,6.44
2019-02-17T09:15:37.520Z,6.42
2019-02-17T09:16:37.535Z,6.46
2019-02-17T09:17:37.550Z,6.52
2019-02-17T09:18:37.569Z,6.62
2019-02-17T09:19:37.585Z,6.56
2019-02-17T09:20:37.596Z,6.63
2019-02-17T09:21:37.611Z,6.75
2019-02-17T09:22:37.629Z,6.77
2019-02-17T09:23:37.647Z,6.78
2019-02-17T09:24:37.660Z,6.85
2019-02-17T09:25:37.679Z,6.88
2019-02-17T09:26:37.688Z,6.93
2019-02-17T09:27:37.712Z,6.99
2019-02-17T09:28:37.719Z,7.03
2019-02-17T09:29:37.734Z,7.07
2019-02-17T09:30:37.750Z,7.10
2019-02-17T09:31:37.767Z,7.11
2019-02-17T09:32:37.790Z,7.29
2019-02-17T09:33:37.799Z,7.35
2019-02-17T09:34:37.816Z,7.42
2019-02-17T09:35:37.830Z,7.38
2019-02-17T09:36:37.844Z,7.39
2019-02-17T09:37:37.859Z,7.53
2019-02-17T09:38:37.884Z,7.48
2019-02-17T09:39:37.901Z,7.56
2019-02-17T09:40:37.910Z,7.56
2019-02-17T09:41:37.922Z,7.53
2019-02-17T09:42:37.941Z,7.60
2019-02-17T09:43:37.958Z,7.67
2019-02-17T09:44:37.971Z,7.75
2019-02-17T09:45:37.986Z,7.76
2019-02-17T09:46:38.005Z,7.79
2019-02-17T09:47:38.020Z,8.00
2019-02-17T09:48:38.036Z,7.93
2019-02-17T09:49:38.059Z,8.01
2019-02-17T09:50:38.066Z,8.01
2019-02-17T09:51:38.085Z,8.01
2019-02-17T09:52:38.101Z,8.05
2019-02-17T09:53:38.117Z,8.12
2019-02-17T09:54:38.134Z,8.19
2019-02-17T09:55:38.148Z,8.16
2019-02-17T09:56:38.164Z,8.33
2019-02-17T09:57:38.179Z,8.38
2019-02-17T09:58:38.199Z,8.41
2019-02-17T09:59:38.219Z,8.36
2019-02-17T10:00:38.241Z,8.45
2019-02-17T10:01:38.247Z,8.60
2019-02-17T10:02:38.265Z,8.51
2019-02-17T10:03:38.280Z,8.58
2019-02-17T10:04:38.301Z,8.70
2019-02-17T10:05:38.311Z,8.64
2019-02-17T10:06:38.335Z,8.82
2019-02-17T10:07:38.353Z,8.89
2019-02-17T10:08:38.364Z,9.02
2019-02-17T10:09:38.381Z,8.99
2019-02-17T10:10:38.397Z,9.10
2019-02-17T10:11:38.410Z,9.06
2019-02-17T10:12:38.429Z,9.21
2019-02-17T10:13:38.445Z,9.26
2019-02-17T10:14:38.460Z,9.36
2019-02-17T10:15:38.484Z,9.40
2019-02-17T10:16:38.495Z,9.40
2019-02-17T10:17:38.512Z,9.47
2019-02-17T10:18:38.527Z,9.58
2019-02-17T10:19:38.547Z,9.58
2019-02-17T10:20:38.568Z,9.72
2019-02-17T10:21:38.579Z,9.74
2019-02-17T10:22:38.594Z,9.89
2019-02-17T10:23:38.619Z,9.92
2019-02-17T10:24:38.631Z,10.01
2019-02-17T10:25:38.645Z,10.09
2019-02-17T10:26:38.664Z,10.13
2019-02-17T10:27:38.682Z,10.23
2019-02-17T10:28:42.475Z,10.28
2019-02-17T10:29:38.716Z,10.42
2019-02-17T10:30:38.804Z,10.42
2019-02-17T10:31:38.756Z,10.57
2019-02-17T10:32:39.314Z,10.69
2019-02-17T10:33:38.783Z,10.74
2019-02-17T10:34:38.805Z,10.74
2019-02-17T10:35:40.444Z,10.74
2019-02-17T10:36:38.839Z,10.86
2019-02-17T10:37:38.855Z,10.90
2019-02-17T10:38:38.874Z,10.92
2019-02-17T10:39:38.893Z,11.10
2019-02-17T10:40:38.918Z,11.10
2019-02-17T10:41:38.924Z,11.19
2019-02-17T10:42:38.944Z,11.22
2019-02-17T10:43:38.959Z,11.29
2019-02-17T10:44:38.978Z,11.40
2019-02-17T10:45:39.001Z,11.51
2019-02-17T10:46:39.020Z,11.55
2019-02-17T10:47:39.033Z,11.63
2019-02-17T10:48:39.049Z,11.68
2019-02-17T10:49:39.070Z,11.75
2019-02-17T10:50:39.086Z,11.83
2019-02-17T10:51:39.102Z,11.84
2019-02-17T10:52:39.121Z,11.87
2019-02-17T10:53:39.138Z,11.91
2019-02-17T10:54:39.163Z,11.97
2019-02-17T10:55:39.175Z,11.99
2019-02-17T10:56:39.195Z,12.04
2019-02-17T10:57:39.212Z,12.00
2019-02-17T10:58:39.231Z,12.03
2019-02-17T10:59:39.256Z,12.12
2019-02-17T11:00:39.268Z,12.02
2019-02-17T11:01:39.283Z,12.03
2019-02-17T11:02:46.701Z,12.06
2019-02-17T11:03:39.329Z,12.06
2019-02-17T11:04:39.339Z,12.07
2019-02-17T11:05:39.359Z,12.03
2019-02-17T11:06:39.382Z,12.13
2019-02-17T11:07:39.397Z,12.00
2019-02-17T11:08:39.416Z,12.15
2019-02-17T11:09:39.430Z,12.10
2019-02-17T11:10:39.449Z,12.15
2019-02-17T11:11:39.469Z,12.09
2019-02-17T11:12:39.492Z,12.12
2019-02-17T11:13:39.506Z,12.18
2019-02-17T11:14:39.530Z,12.17
2019-02-17T11:15:39.544Z,12.20
2019-02-17T11:16:39.564Z,12.29
2019-02-17T11:17:39.588Z,12.54
2019-02-17T11:18:39.599Z,12.83
2019-02-17T11:19:39.617Z,12.95
2019-02-17T11:20:39.640Z,13.09
2019-02-17T11:21:39.656Z,13.22
2019-02-17T11:22:39.672Z,13.31
2019-02-17T11:23:39.694Z,13.27
2019-02-17T11:24:39.714Z,13.28
2019-02-17T11:25:39.732Z,13.25
2019-02-17T11:26:39.751Z,13.27
2019-02-17T11:27:39.770Z,13.37
2019-02-17T11:28:39.789Z,13.44
2019-02-17T11:29:39.813Z,13.52
2019-02-17T11:30:39.832Z,13.47
2019-02-17T11:31:39.858Z,13.53
2019-02-17T11:32:39.864Z,13.35
2019-02-17T11:33:39.887Z,13.39
2019-02-17T11:34:39.905Z,13.38
2019-02-17T11:35:39.927Z,13.39
2019-02-17T11:36:39.950Z,13.49
2019-02-17T11:37:39.968Z,13.52
2019-02-17T11:38:39.982Z,13.56
2019-02-17T11:39:40.002Z,13.60
2019-02-17T11:40:40.019Z,13.68
2019-02-17T11:41:40.040Z,13.62
2019-02-17T11:42:40.063Z,13.59
2019-02-17T11:43:40.078Z,13.53
2019-02-17T11:44:40.100Z,13.60
2019-02-17T11:45:40.117Z,13.63
2019-02-17T11:46:40.141Z,13.70
2019-02-17T11:47:40.153Z,13.83
2019-02-17T11:48:40.177Z,14.10
2019-02-17T11:49:40.194Z,14.12
2019-02-17T11:50:40.215Z,14.36
2019-02-17T11:51:40.235Z,14.40
2019-02-17T11:52:40.256Z,14.36
2019-02-17T11:53:40.272Z,14.44
2019-02-17T11:54:40.293Z,14.33
2019-02-17T11:55:40.314Z,14.18
2019-02-17T11:56:40.335Z,14.25
2019-02-17T11:57:40.350Z,14.14
2019-02-17T11:58:40.379Z,14.14
2019-02-17T11:59:40.392Z,14.14
2019-02-17T12:00:40.411Z,14.14
2019-02-17T12:01:40.430Z,14.11
2019-02-17T12:02:40.459Z,14.14
2019-02-17T12:03:40.470Z,14.11
2019-02-17T12:04:40.492Z,14.08
2019-02-17T12:05:40.510Z,14.07
2019-02-17T12:06:40.531Z,14.03
2019-02-17T12:07:40.552Z,14.14
2019-02-17T12:08:40.572Z,14.11
2019-02-17T12:09:40.594Z,14.18
2019-02-17T12:10:40.612Z,14.08
2019-02-17T12:11:40.628Z,14.14
2019-02-17T12:12:40.650Z,14.12
2019-02-17T12:13:40.670Z,14.14
2019-02-17T12:14:40.692Z,14.14
2019-02-17T12:15:40.710Z,14.32
2019-02-17T12:16:40.732Z,14.40
2019-02-17T12:17:40.751Z,14.54
2019-02-17T12:18:40.781Z,14.53
2019-02-17T12:19:40.791Z,14.45
2019-02-17T12:20:40.810Z,14.58
2019-02-17T12:21:40.828Z,14.59
2019-02-17T12:22:40.857Z,14.53
2019-02-17T12:23:40.871Z,14.55
2019-02-17T12:24:40.895Z,14.65
2019-02-17T12:25:40.911Z,14.78
2019-02-17T12:26:40.933Z,14.82
2019-02-17T12:27:40.956Z,14.78
2019-02-17T12:28:40.971Z,14.92
2019-02-17T12:29:40.991Z,14.96
2019-02-17T12:30:41.017Z,14.96
2019-02-17T12:31:41.028Z,15.07
2019-02-17T12:32:41.051Z,14.91
2019-02-17T12:33:41.068Z,14.96
2019-02-17T12:34:41.090Z,15.06
2019-02-17T12:35:41.111Z,14.99
2019-02-17T12:36:41.131Z,14.92
2019-02-17T12:37:41.148Z,14.96
2019-02-17T12:38:41.171Z,15.02
2019-02-17T12:39:41.190Z,14.97
2019-02-17T12:40:41.211Z,15.00
2019-02-17T12:41:41.228Z,15.03
2019-02-17T12:42:41.256Z,15.00
2019-02-17T12:43:41.279Z,15.07
2019-02-17T12:44:41.300Z,15.14
2019-02-17T12:45:41.310Z,15.17
2019-02-17T12:46:41.337Z,15.27
2019-02-17T12:47:41.352Z,15.31
2019-02-17T12:48:41.372Z,15.33
2019-02-17T12:49:41.392Z,15.29
2019-02-17T12:50:41.412Z,15.37
2019-02-17T12:51:41.432Z,15.37
2019-02-17T12:52:47.119Z,15.39
2019-02-17T12:53:41.475Z,15.52
2019-02-17T12:54:41.495Z,15.44
2019-02-17T12:55:41.512Z,15.58
2019-02-17T12:56:41.531Z,15.64
2019-02-17T12:57:41.550Z,15.64
2019-02-17T12:58:41.573Z,15.67
2019-02-17T12:59:41.594Z,15.64
2019-02-17T13:00:41.618Z,15.65
2019-02-17T13:01:41.632Z,15.72
2019-02-17T13:02:41.663Z,15.51
2019-02-17T13:03:41.681Z,15.59
2019-02-17T13:04:41.693Z,15.51
2019-02-17T13:05:41.713Z,15.61
2019-02-17T13:06:41.736Z,15.68
2019-02-17T13:07:42.919Z,15.70
2019-02-17T13:08:41.781Z,15.70
2019-02-17T13:09:41.802Z,15.67
2019-02-17T13:10:41.815Z,15.67
2019-02-17T13:11:41.836Z,15.65
2019-02-17T13:12:41.858Z,15.70